Granby, Colorado
Current Conditions -  °F | °C
As of 11:50 AM on Friday 24 Oct 2014 (Local Time) from K0CO Reporting Station
Clear Clear  
Wind Chill: 27°   Ceiling: Unl
Heat Index: 37°   Visibility: 10mi
Dew Point: 36°   Wind: 22mph
Humidity: 93%   Direction: 300°WNW
Pressure: 30.65"   Gusts: 28mph
Location:  40.09°N, 105.94°W
Report Text: K0CO 241750Z AUTO 30019G24KT 10SM CLR 03/02 A3065 RMK AO2
Loading
Personal Weather Stations






























Interactive Weather Map New forecast layout! Learn more

10-Day Weather Forecast

Advertisements
Track Severe Weather on mobile